Main page
METAR-TAF:

Airports :

Birmingham, England

Birmingham Airport

latitude: 52-27N, longitude: 001-44W, elevation: 99 m

Current weather observation

The report was made 33 minutes ago, at 22:50 UTC
Wind 3 kt from the Southwest
Temperature 13°C
Humidity 94%
Pressure 1025 hPa
Visibility 10 km or more
no clouds below 1500 m and no cumulonimbus

METAR: EGBB 292250Z 22003KT CAVOK 13/12 Q1025

Time: 00:23 (23:23 UTC)

Forecast

The report was made 6 hours and 19 minutes ago, at 17:04 UTC
Forecast valid from 29 at 18 UTC to 30 at 18 UTC
Wind 7 kt from the West/Northwest
Visibility 10 km or more
no clouds below 1500 m and no cumulonimbus
Temporary
from 30 at 05 UTC to 30 at 13 UTC
Broken clouds at a height of 2000 ft
Probability 30%
from 30 at 05 UTC to 30 at 10 UTC
Visibility: 8000 m
Broken clouds at a height of 1400 ft

TAF: EGBB 291704Z 2918/3018 29007KT CAVOK TEMPO 3005/3013 BKN020 PROB30 3005/3010 8000 BKN014

METAR-TAF

Weather observations and forecasts of more than 4000 airports (METAR and TAF reports).

The available stations are represented by yellow and red dots on the map.

Hover mouse over dot to see the name of the station.

Then click to see weather observations and forecasts.

To change the map : click on the green buttons with a black cross to zoom in, on the green button with a dash to zoom out, or on the green arrows for adjacent maps.


METAR-TAF: